Time;durP1;ratioP1;P1;durP2;ratioP2;P2;SDS_P1;SDS_P2;PMS_P1;PMS_P2;Temp;Humidity;BMP_temperature;BMP_pressure;BME280_temperature;BME280_humidity;BME280_pressure;Samples;Min_cycle;Max_cycle;Signal;HPM_P1;HPM_P2
2023/01/03 00:00:53;;;;;;;2.33;1.60;;;18.00;76.50;;;;;;5035010;28;45291;-70
2023/01/03 00:03:20;;;;;;;3.80;1.85;;;18.00;76.50;;;;;;5032243;28;45282;-70
2023/01/03 00:05:48;;;;;;;4.43;1.88;;;18.00;76.50;;;;;;5029137;28;45463;-70
2023/01/03 00:08:16;;;;;;;3.40;1.60;;;18.00;76.50;;;;;;5029062;28;45503;-70
2023/01/03 00:10:43;;;;;;;3.97;1.70;;;18.00;76.50;;;;;;5031864;28;45362;-70
2023/01/03 00:13:09;;;;;;;2.70;1.23;;;18.00;76.20;;;;;;5033039;28;45454;-70
2023/01/03 00:15:37;;;;;;;2.88;1.60;;;18.00;75.80;;;;;;5025107;28;45464;-70
2023/01/03 00:18:04;;;;;;;4.07;1.88;;;18.00;75.80;;;;;;5027075;28;46283;-70
2023/01/03 00:20:32;;;;;;;2.30;1.30;;;18.00;75.90;;;;;;5031880;28;45266;-70
2023/01/03 00:23:00;;;;;;;2.63;1.45;;;18.00;76.10;;;;;;5033130;28;45482;-70
2023/01/03 00:25:29;;;;;;;2.70;1.52;;;18.00;76.10;;;;;;5032139;28;45510;-70
2023/01/03 00:27:56;;;;;;;3.50;2.13;;;18.00;76.10;;;;;;5025895;28;46311;-70
2023/01/03 00:30:23;;;;;;;2.22;1.33;;;18.10;76.00;;;;;;5028810;28;45972;-70
2023/01/03 00:32:50;;;;;;;1.88;1.17;;;18.00;75.90;;;;;;5033275;28;45549;-70
2023/01/03 00:35:17;;;;;;;3.72;1.50;;;18.10;76.10;;;;;;5033041;28;45561;-69
2023/01/03 00:37:43;;;;;;;2.38;1.23;;;18.10;75.90;;;;;;5033493;28;46390;-69
2023/01/03 00:40:11;;;;;;;2.60;1.48;;;18.10;75.80;;;;;;5030403;28;45327;-70
2023/01/03 00:45:20;;;;;;;2.83;1.20;;;18.10;75.80;;;;;;5027938;28;45372;-70
2023/01/03 00:47:47;;;;;;;2.63;1.60;;;18.10;75.70;;;;;;5033211;28;46303;-70
2023/01/03 00:50:14;;;;;;;2.92;1.70;;;18.10;75.50;;;;;;5031518;28;46646;-70
2023/01/03 00:52:40;;;;;;;4.57;1.77;;;18.10;75.60;;;;;;5029128;28;45306;-70
2023/01/03 00:55:09;;;;;;;2.85;1.35;;;18.00;75.40;;;;;;5032420;28;45290;-70
2023/01/03 00:57:36;;;;;;;2.28;1.30;;;18.00;75.40;;;;;;5033688;28;47616;-70
2023/01/03 01:00:04;;;;;;;3.35;1.38;;;18.00;75.30;;;;;;5031786;28;45778;-70
2023/01/03 01:02:31;;;;;;;2.08;1.40;;;18.00;75.30;;;;;;5017720;28;45516;-69
2023/01/03 01:04:58;;;;;;;3.50;1.35;;;18.00;75.40;;;;;;5028255;28;45533;-70
2023/01/03 01:07:25;;;;;;;3.20;1.30;;;18.00;75.10;;;;;;5034791;28;46043;-70
2023/01/03 01:09:51;;;;;;;2.38;1.40;;;18.00;75.10;;;;;;5028244;28;45458;-70
2023/01/03 01:12:18;;;;;;;2.15;1.45;;;18.00;75.40;;;;;;5030543;28;45382;-70
2023/01/03 01:14:45;;;;;;;2.08;1.40;;;18.00;75.00;;;;;;5031356;28;45440;-70
2023/01/03 01:17:13;;;;;;;2.60;1.33;;;18.00;75.00;;;;;;5027625;28;47133;-70
2023/01/03 01:19:42;;;;;;;2.92;1.55;;;18.00;75.20;;;;;;5019093;28;45450;-70
2023/01/03 01:22:10;;;;;;;2.50;1.20;;;18.00;75.20;;;;;;5023408;28;45435;-70
2023/01/03 01:24:37;;;;;;;1.83;1.10;;;18.00;75.20;;;;;;5022906;28;45461;-70
2023/01/03 01:27:04;;;;;;;2.00;1.20;;;18.00;75.20;;;;;;5023031;28;46463;-70
2023/01/03 01:29:31;;;;;;;3.00;1.27;;;18.00;75.20;;;;;;5022088;28;45366;-70
2023/01/03 01:31:58;;;;;;;1.55;1.13;;;18.00;75.10;;;;;;5023749;28;45328;-70
2023/01/03 01:34:26;;;;;;;4.13;1.52;;;18.00;75.20;;;;;;5023583;28;45252;-70
2023/01/03 01:36:53;;;;;;;3.65;1.55;;;18.00;75.10;;;;;;5022648;28;46273;-70
2023/01/03 01:39:21;;;;;;;3.80;1.17;;;18.00;75.10;;;;;;5022712;28;45275;-70
2023/01/03 01:44:50;;;;;;;2.60;1.27;;;18.00;75.00;;;;;;5023856;28;45367;-70
2023/01/03 01:47:24;;;;;;;2.22;1.20;;;18.00;74.80;;;;;;5022444;28;48039;-70
2023/01/03 01:49:56;;;;;;;3.28;1.27;;;18.00;74.60;;;;;;5022798;28;45425;-71
2023/01/03 01:52:24;;;;;;;2.53;1.10;;;18.00;74.50;;;;;;5023154;28;45291;-70
2023/01/03 01:54:53;;;;;;;1.67;1.25;;;18.00;74.30;;;;;;5023424;28;45382;-70
2023/01/03 01:57:22;;;;;;;2.45;1.17;;;18.00;74.20;;;;;;5022937;28;48483;-70
2023/01/03 01:59:49;;;;;;;1.92;1.10;;;18.00;74.10;;;;;;5022436;28;45392;-70
2023/01/03 02:02:19;;;;;;;1.73;0.95;;;18.00;74.20;;;;;;5020270;28;45445;-71
2023/01/03 02:04:48;;;;;;;1.65;1.15;;;18.00;74.10;;;;;;5015917;28;45259;-70
2023/01/03 02:07:18;;;;;;;2.10;1.10;;;18.00;73.90;;;;;;5021413;28;48174;-70
2023/01/03 02:09:46;;;;;;;2.15;1.17;;;18.00;74.00;;;;;;5016995;28;45454;-70
2023/01/03 02:15:20;;;;;;;1.67;0.80;;;18.00;73.60;;;;;;5012242;28;45496;-69
2023/01/03 02:17:58;;;;;;;2.17;1.30;;;17.90;73.60;;;;;;5010754;28;46409;-70
2023/01/03 02:20:40;;;;;;;2.45;1.17;;;18.00;73.80;;;;;;5023030;28;45413;-70
2023/01/03 02:23:43;;;;;;;1.90;0.93;;;18.00;73.80;;;;;;5021849;28;45445;-70
2023/01/03 02:26:51;;;;;;;1.63;0.77;;;18.00;73.60;;;;;;5006339;28;45608;-70
2023/01/03 02:29:48;;;;;;;2.38;1.20;;;18.00;73.60;;;;;;4963587;28;45582;-70
2023/01/03 02:32:20;;;;;;;1.63;0.90;;;18.00;73.50;;;;;;4955105;28;45415;-70
2023/01/03 02:34:57;;;;;;;5.18;1.20;;;18.00;73.50;;;;;;5010830;28;45381;-70
2023/01/03 02:37:32;;;;;;;4.57;1.20;;;18.00;73.40;;;;;;5019905;28;45269;-71
2023/01/03 02:40:05;;;;;;;2.30;0.95;;;18.00;73.30;;;;;;5021600;28;45338;-70
2023/01/03 02:45:43;;;;;;;2.13;1.08;;;18.00;73.10;;;;;;5021814;28;45483;-70
2023/01/03 02:48:14;;;;;;;2.75;1.00;;;18.00;72.90;;;;;;5017909;28;45412;-70
2023/01/03 02:50:47;;;;;;;2.90;1.10;;;18.00;72.80;;;;;;5021809;28;47989;-70
2023/01/03 02:53:19;;;;;;;3.35;1.00;;;17.90;72.60;;;;;;5022701;28;45436;-70
2023/01/03 02:55:49;;;;;;;1.58;0.80;;;18.00;72.50;;;;;;5021624;28;45408;-70
2023/01/03 02:58:21;;;;;;;1.63;1.17;;;18.00;72.40;;;;;;5021917;28;45590;-69
2023/01/03 03:00:55;;;;;;;4.68;0.93;;;17.90;72.30;;;;;;5020971;28;47114;-71
2023/01/03 03:03:28;;;;;;;2.13;0.90;;;17.90;72.10;;;;;;5020716;28;46654;-69
2023/01/03 03:06:02;;;;;;;1.23;0.80;;;17.90;72.00;;;;;;5022416;28;45366;-70
2023/01/03 03:08:29;;;;;;;1.45;0.88;;;17.90;71.90;;;;;;5021250;28;45291;-70
2023/01/03 03:13:45;;;;;;;2.42;0.90;;;17.90;72.00;;;;;;5022240;28;45234;-70
2023/01/03 03:16:18;;;;;;;2.08;1.00;;;17.90;71.80;;;;;;5022621;28;45385;-69
2023/01/03 03:18:58;;;;;;;2.75;0.90;;;17.90;72.10;;;;;;5020286;28;45310;-70
2023/01/03 03:26:58;;;;;;;2.90;1.17;;;17.90;72.00;;;;;;5024183;28;45475;-70
2023/01/03 03:29:27;;;;;;;2.70;1.10;;;17.90;71.90;;;;;;5024672;28;45457;-70
2023/01/03 03:31:54;;;;;;;2.92;1.17;;;17.90;71.80;;;;;;5024707;28;48386;-70
2023/01/03 03:34:26;;;;;;;2.58;1.02;;;17.90;71.70;;;;;;5025534;28;45394;-70
2023/01/03 03:36:57;;;;;;;2.95;0.90;;;17.90;71.70;;;;;;5024044;28;45451;-70
2023/01/03 03:45:12;;;;;;;2.22;0.88;;;17.90;71.40;;;;;;5005605;28;45342;-70
2023/01/03 03:47:46;;;;;;;1.25;0.85;;;17.90;71.20;;;;;;5004526;28;45530;-70
2023/01/03 03:50:22;;;;;;;2.67;0.98;;;17.90;71.20;;;;;;5004179;28;45573;-70
2023/01/03 03:52:52;;;;;;;2.85;1.20;;;17.90;71.00;;;;;;5005000;28;45453;-71
2023/01/03 03:55:22;;;;;;;4.80;1.05;;;17.90;70.90;;;;;;5005477;28;45414;-70
2023/01/03 03:57:52;;;;;;;5.20;0.90;;;17.90;70.80;;;;;;5005479;28;45288;-70
2023/01/03 04:00:22;;;;;;;3.05;0.90;;;17.90;70.70;;;;;;5013091;28;45253;-69
2023/01/03 04:02:50;;;;;;;2.22;0.95;;;17.90;70.30;;;;;;5023936;28;48405;-70
2023/01/03 04:05:22;;;;;;;3.28;0.90;;;17.80;69.40;;;;;;5024694;28;45418;-70
2023/01/03 04:07:49;;;;;;;4.18;0.90;;;17.80;69.10;;;;;;5024643;28;45355;-70
2023/01/03 04:10:19;;;;;;;2.03;0.60;;;17.80;68.20;;;;;;5007007;28;45556;-69
2023/01/03 04:12:47;;;;;;;2.70;0.70;;;17.80;68.00;;;;;;5004851;28;46516;-70
2023/01/03 04:15:14;;;;;;;1.85;0.82;;;17.80;68.80;;;;;;5004955;28;45334;-69
2023/01/03 04:17:41;;;;;;;4.68;1.05;;;17.80;69.10;;;;;;5014793;28;45436;-70
2023/01/03 04:20:09;;;;;;;3.33;1.20;;;17.80;70.00;;;;;;5024448;28;45494;-69
2023/01/03 04:22:38;;;;;;;2.72;0.82;;;17.80;68.90;;;;;;5023883;28;46401;-69
2023/01/03 04:25:05;;;;;;;3.53;1.20;;;17.80;69.00;;;;;;5024414;28;45373;-70
2023/01/03 04:27:32;;;;;;;1.20;0.80;;;17.80;69.10;;;;;;5024121;28;45481;-70
2023/01/03 04:29:59;;;;;;;2.35;0.90;;;17.80;69.10;;;;;;5024438;28;45484;-69
2023/01/03 04:32:26;;;;;;;3.03;1.17;;;17.80;69.10;;;;;;5024125;28;47017;-70
2023/01/03 04:34:52;;;;;;;1.40;0.63;;;17.80;69.10;;;;;;5024137;28;45299;-70
2023/01/03 04:37:19;;;;;;;2.10;0.80;;;17.80;68.90;;;;;;5024828;28;45616;-70
2023/01/03 04:39:47;;;;;;;1.65;0.80;;;17.80;69.20;;;;;;5023682;28;45294;-70
2023/01/03 04:44:58;;;;;;;1.35;0.77;;;17.80;68.60;;;;;;5022702;28;45287;-70
2023/01/03 04:47:25;;;;;;;3.10;0.80;;;17.80;68.60;;;;;;5024016;28;45396;-69
2023/01/03 04:49:52;;;;;;;2.20;0.95;;;17.80;68.20;;;;;;5023415;28;45423;-69
2023/01/03 04:52:19;;;;;;;2.53;0.70;;;17.80;68.50;;;;;;5023528;28;45319;-70
2023/01/03 04:54:47;;;;;;;2.53;0.82;;;17.80;68.20;;;;;;5024178;28;45450;-70
2023/01/03 04:57:14;;;;;;;3.58;0.93;;;17.80;68.20;;;;;;5023719;28;45571;-70
2023/01/03 04:59:40;;;;;;;2.13;0.80;;;17.80;68.30;;;;;;5023688;28;45548;-70
2023/01/03 05:02:07;;;;;;;3.88;1.13;;;17.80;68.20;;;;;;5022570;28;46117;-69
2023/01/03 05:04:34;;;;;;;2.90;0.82;;;17.80;68.30;;;;;;5024000;28;45600;-70
2023/01/03 05:07:01;;;;;;;2.10;0.73;;;17.80;68.00;;;;;;5023716;28;45325;-70
2023/01/03 05:09:27;;;;;;;2.13;0.85;;;17.80;68.00;;;;;;5022484;28;45472;-69
2023/01/03 05:11:56;;;;;;;1.35;0.70;;;17.80;68.20;;;;;;5023497;28;46340;-70
2023/01/03 05:14:22;;;;;;;1.83;0.63;;;17.80;68.50;;;;;;5022952;28;45357;-69
2023/01/03 05:16:49;;;;;;;1.48;0.70;;;17.80;68.70;;;;;;5022830;28;45395;-69
2023/01/03 05:19:16;;;;;;;4.00;0.90;;;17.80;68.70;;;;;;5022789;28;45310;-69
2023/01/03 05:27:18;;;;;;;2.15;0.85;;;17.80;68.60;;;;;;5021900;28;45294;-70
2023/01/03 05:29:49;;;;;;;1.73;0.70;;;17.80;68.50;;;;;;5022827;28;45621;-69
2023/01/03 05:32:16;;;;;;;1.40;0.77;;;17.90;68.70;;;;;;5023016;28;47199;-70
2023/01/03 05:34:42;;;;;;;2.42;0.90;;;17.90;68.60;;;;;;5023550;28;45432;-70
2023/01/03 05:37:09;;;;;;;3.08;1.10;;;17.80;68.40;;;;;;5023475;28;45530;-70
2023/01/03 05:39:36;;;;;;;1.50;0.80;;;17.80;68.40;;;;;;5023023;28;45349;-70
2023/01/03 05:42:03;;;;;;;3.90;0.82;;;17.80;68.20;;;;;;5022482;28;47529;-70
2023/01/03 05:44:32;;;;;;;2.15;1.05;;;17.80;68.20;;;;;;5022642;28;45396;-70
2023/01/03 05:47:00;;;;;;;2.28;0.90;;;17.80;68.20;;;;;;5023030;28;45318;-70
2023/01/03 05:49:27;;;;;;;2.95;0.80;;;17.80;68.00;;;;;;5021316;28;45275;-70
2023/01/03 05:51:54;;;;;;;3.38;0.80;;;17.80;68.10;;;;;;5022298;28;47192;-70
2023/01/03 05:54:21;;;;;;;2.65;1.17;;;17.80;68.10;;;;;;5021990;28;45351;-70
2023/01/03 05:56:49;;;;;;;1.83;0.80;;;17.80;68.00;;;;;;5022024;28;45361;-70
2023/01/03 05:59:16;;;;;;;1.65;0.95;;;17.80;68.10;;;;;;5022488;28;45444;-70
2023/01/03 06:01:44;;;;;;;2.10;0.98;;;17.80;68.00;;;;;;5022785;28;46311;-69
2023/01/03 06:04:11;;;;;;;0.90;0.70;;;17.80;67.70;;;;;;5023030;28;45227;-69
2023/01/03 06:06:37;;;;;;;1.65;0.80;;;17.80;67.70;;;;;;5022323;28;45527;-70
2023/01/03 06:09:04;;;;;;;1.77;0.80;;;17.80;68.00;;;;;;5019662;28;45293;-69
2023/01/03 06:11:31;;;;;;;2.03;0.80;;;17.80;68.00;;;;;;5022080;28;46275;-69
2023/01/03 06:13:58;;;;;;;1.83;0.85;;;17.80;68.00;;;;;;5022731;28;45429;-70
2023/01/03 06:19:11;;;;;;;1.52;0.85;;;17.80;67.90;;;;;;5019503;28;45334;-69
2023/01/03 06:21:40;;;;;;;1.20;0.85;;;17.80;67.90;;;;;;5021390;28;45510;-70
2023/01/03 06:24:07;;;;;;;1.88;0.80;;;17.80;67.90;;;;;;5022197;28;45295;-69
2023/01/03 06:26:34;;;;;;;2.20;0.90;;;17.80;67.70;;;;;;5022546;28;45300;-69
2023/01/03 06:29:02;;;;;;;1.33;0.80;;;17.80;67.70;;;;;;5022026;28;45639;-69
2023/01/03 06:31:28;;;;;;;3.13;1.10;;;17.80;67.70;;;;;;5017145;28;46530;-70
2023/01/03 06:33:55;;;;;;;1.42;0.88;;;17.80;67.50;;;;;;5022111;28;45867;-70
2023/01/03 06:36:24;;;;;;;1.42;0.90;;;17.80;67.70;;;;;;5021978;28;45341;-69
2023/01/03 06:38:51;;;;;;;1.17;0.82;;;17.80;67.80;;;;;;5022448;28;45497;-69
2023/01/03 06:41:18;;;;;;;2.47;1.00;;;17.70;67.70;;;;;;5019695;28;46068;-69
2023/01/03 06:43:45;;;;;;;2.85;1.00;;;17.70;67.70;;;;;;5021418;28;45333;-70
2023/01/03 06:54:29;;;;;;;1.65;1.10;;;17.70;67.60;;;;;;5012240;28;45471;-69
2023/01/03 06:56:56;;;;;;;1.58;0.82;;;17.70;67.50;;;;;;5021679;28;45230;-69
2023/01/03 06:59:23;;;;;;;3.63;1.00;;;17.70;67.30;;;;;;5022364;28;45426;-69
2023/01/03 07:01:51;;;;;;;2.88;0.90;;;17.70;67.20;;;;;;5022105;28;47932;-69
2023/01/03 07:04:19;;;;;;;1.92;0.93;;;17.70;66.80;;;;;;5020808;28;45353;-69
2023/01/03 07:06:48;;;;;;;1.45;0.80;;;17.70;66.70;;;;;;5021744;28;45242;-69
2023/01/03 07:09:14;;;;;;;1.85;1.00;;;17.70;66.80;;;;;;5020545;28;45308;-69
2023/01/03 07:11:42;;;;;;;2.13;1.05;;;17.70;66.80;;;;;;5016510;28;45501;-70
2023/01/03 07:14:09;;;;;;;1.50;0.80;;;17.80;66.70;;;;;;5022392;28;45290;-69
2023/01/03 07:16:38;;;;;;;1.52;1.02;;;17.80;66.80;;;;;;5021587;28;45437;-70
2023/01/03 07:19:06;;;;;;;2.15;0.95;;;17.80;66.60;;;;;;5009307;28;45433;-69
2023/01/03 07:21:35;;;;;;;2.22;0.95;;;17.80;66.80;;;;;;5021373;28;46625;-70
2023/01/03 07:24:04;;;;;;;1.85;0.93;;;17.80;66.30;;;;;;5021528;28;45389;-69
2023/01/03 07:26:32;;;;;;;0.93;0.70;;;17.70;66.40;;;;;;5021562;28;45392;-69
2023/01/03 07:29:00;;;;;;;1.73;0.85;;;17.70;66.20;;;;;;5021910;28;45539;-69
2023/01/03 07:31:27;;;;;;;1.27;0.90;;;17.70;65.70;;;;;;5017334;28;46413;-70
2023/01/03 07:33:54;;;;;;;2.70;0.90;;;17.70;65.60;;;;;;5021153;28;46017;-70
2023/01/03 07:36:22;;;;;;;2.20;0.90;;;17.60;65.20;;;;;;5021704;28;45505;-69
2023/01/03 07:38:49;;;;;;;3.53;1.10;;;17.60;64.80;;;;;;5021101;28;45261;-69
2023/01/03 07:41:18;;;;;;;2.47;0.82;;;17.60;64.80;;;;;;5021111;28;45328;-70
2023/01/03 07:43:46;;;;;;;2.75;1.35;;;17.50;64.40;;;;;;5018526;28;45466;-69
2023/01/03 07:46:15;;;;;;;2.65;0.90;;;17.50;64.20;;;;;;5021514;28;45427;-69
2023/01/03 07:48:43;;;;;;;2.83;0.90;;;17.50;63.80;;;;;;5020643;28;45476;-70
2023/01/03 07:51:12;;;;;;;1.25;0.90;;;17.50;63.70;;;;;;5018346;28;45461;-69
2023/01/03 07:53:39;;;;;;;2.47;0.60;;;17.50;63.50;;;;;;5019818;28;45444;-70
2023/01/03 07:56:08;;;;;;;1.55;0.80;;;17.50;63.40;;;;;;5018910;28;45386;-70
2023/01/03 07:58:36;;;;;;;1.10;0.60;;;17.50;62.90;;;;;;5024376;28;45349;-70
2023/01/03 08:01:05;;;;;;;2.20;0.88;;;17.50;63.10;;;;;;5019360;28;46345;-69
2023/01/03 08:03:32;;;;;;;2.38;0.90;;;17.50;63.30;;;;;;4999754;28;45408;-70
2023/01/03 08:06:03;;;;;;;4.68;0.90;;;17.50;63.70;;;;;;5001749;28;45495;-69
2023/01/03 08:08:31;;;;;;;8.68;1.70;;;17.50;63.80;;;;;;5021401;28;45477;-71
2023/01/03 08:13:44;;;;;;;1.75;0.55;;;17.60;64.60;;;;;;5022414;28;45312;-71
2023/01/03 08:16:14;;;;;;;5.90;0.82;;;17.60;64.60;;;;;;5025011;28;45544;-71
2023/01/03 08:18:42;;;;;;;1.67;0.90;;;17.60;64.70;;;;;;5024008;28;45379;-71
2023/01/03 08:21:10;;;;;;;2.13;0.80;;;17.60;64.80;;;;;;5021491;28;46525;-70
2023/01/03 08:23:37;;;;;;;3.15;0.90;;;17.70;64.90;;;;;;5022047;28;45432;-70
2023/01/03 08:26:06;;;;;;;5.78;1.17;;;17.70;65.00;;;;;;5023961;28;45453;-72
2023/01/03 08:28:35;;;;;;;3.83;0.85;;;17.70;65.50;;;;;;5023810;28;45586;-73
2023/01/03 08:31:09;;;;;;;3.78;0.93;;;17.60;65.00;;;;;;5021132;28;46991;-72
2023/01/03 08:33:41;;;;;;;2.05;1.10;;;17.60;65.40;;;;;;5023697;28;45319;-72
2023/01/03 08:36:09;;;;;;;1.70;0.82;;;17.60;65.20;;;;;;5023959;28;45535;-72
2023/01/03 08:38:41;;;;;;;2.28;0.85;;;17.60;65.30;;;;;;5023876;28;45586;-72
2023/01/03 08:41:09;;;;;;;2.28;0.70;;;17.60;65.40;;;;;;5023022;28;45405;-73
2023/01/03 08:43:39;;;;;;;2.83;0.85;;;17.60;65.30;;;;;;5022957;28;45361;-72
2023/01/03 08:46:08;;;;;;;1.58;1.00;;;17.60;65.20;;;;;;5022070;28;45452;-72
2023/01/03 08:48:35;;;;;;;3.60;1.10;;;17.60;65.30;;;;;;5023407;28;45597;-72
2023/01/03 08:51:03;;;;;;;1.40;0.77;;;17.70;65.40;;;;;;5023847;28;46406;-73
2023/01/03 08:53:29;;;;;;;3.83;1.55;;;17.60;65.40;;;;;;5023216;28;45235;-73
2023/01/03 08:55:56;;;;;;;2.70;0.80;;;17.70;65.40;;;;;;5022472;28;45527;-73
2023/01/03 08:58:23;;;;;;;2.08;0.88;;;17.70;65.40;;;;;;5022740;28;45625;-72
2023/01/03 09:00:50;;;;;;;1.02;0.68;;;17.70;65.50;;;;;;5022284;28;46874;-73
2023/01/03 09:03:18;;;;;;;0.85;0.70;;;17.70;65.40;;;;;;5024224;28;45403;-72
2023/01/03 09:05:45;;;;;;;1.80;0.93;;;17.80;65.40;;;;;;5023104;28;45338;-73
2023/01/03 09:08:12;;;;;;;2.88;0.90;;;17.80;65.30;;;;;;5023602;28;45399;-73
2023/01/03 09:10:39;;;;;;;0.75;0.70;;;17.80;65.20;;;;;;5021701;28;46419;-73
2023/01/03 09:13:06;;;;;;;2.10;0.80;;;17.80;65.10;;;;;;5023342;28;45345;-73
2023/01/03 09:15:33;;;;;;;2.92;1.10;;;17.80;65.20;;;;;;5024852;28;45428;-71
2023/01/03 09:17:59;;;;;;;0.80;0.57;;;17.80;65.10;;;;;;5023498;28;45516;-72
2023/01/03 09:20:28;;;;;;;2.65;0.90;;;17.90;65.10;;;;;;5024567;28;45326;-73
2023/01/03 09:22:55;;;;;;;1.38;0.70;;;17.90;65.00;;;;;;5023117;28;46178;-73
2023/01/03 09:25:22;;;;;;;1.90;0.65;;;17.90;65.00;;;;;;5024545;28;45488;-72
2023/01/03 09:27:49;;;;;;;1.48;0.73;;;17.90;65.00;;;;;;5025459;28;45606;-72
2023/01/03 09:30:18;;;;;;;2.25;0.70;;;17.90;65.00;;;;;;5024094;28;45473;-73
2023/01/03 09:32:45;;;;;;;1.40;0.90;;;17.90;65.20;;;;;;5024928;28;45394;-72
2023/01/03 09:35:12;;;;;;;1.52;0.70;;;17.90;65.20;;;;;;5024905;28;45400;-73
2023/01/03 09:37:40;;;;;;;3.20;1.00;;;17.90;65.30;;;;;;5023786;28;45366;-73
2023/01/03 09:40:07;;;;;;;1.58;0.80;;;17.90;65.30;;;;;;5024134;28;46495;-72
2023/01/03 09:45:27;;;;;;;0.88;0.60;;;17.90;65.50;;;;;;5021955;28;45316;-73
2023/01/03 09:47:54;;;;;;;0.73;0.50;;;17.90;65.50;;;;;;5024318;28;45334;-72
2023/01/03 09:50:23;;;;;;;1.83;0.60;;;17.90;65.60;;;;;;5022838;28;45455;-73
2023/01/03 10:04:32;;;;;;;1.40;0.73;;;17.90;65.80;;;;;;5023877;28;45306;-72
2023/01/03 10:07:08;;;;;;;1.00;0.57;;;17.90;65.80;;;;;;5020007;28;45355;-72
2023/01/03 10:09:44;;;;;;;1.77;0.60;;;18.00;65.80;;;;;;5023155;28;45543;-72
2023/01/03 10:12:22;;;;;;;1.52;0.63;;;17.90;65.70;;;;;;5020104;28;46502;-73
2023/01/03 10:15:05;;;;;;;0.55;0.55;;;18.00;65.70;;;;;;5023919;28;45472;-72
2023/01/03 10:17:37;;;;;;;1.98;0.60;;;18.00;65.80;;;;;;5023355;28;45339;-72
2023/01/03 10:20:22;;;;;;;1.13;0.43;;;18.00;65.80;;;;;;5023266;28;45420;-72
2023/01/03 10:22:51;;;;;;;2.17;0.88;;;18.00;65.90;;;;;;5021852;28;47906;-73
2023/01/03 10:25:21;;;;;;;1.58;0.40;;;18.00;65.90;;;;;;5023149;28;45327;-73
2023/01/03 10:27:51;;;;;;;0.73;0.55;;;18.00;66.00;;;;;;5023213;28;45342;-73
2023/01/03 10:30:21;;;;;;;1.30;0.60;;;18.00;66.10;;;;;;5022221;28;45409;-72
2023/01/03 10:33:24;;;;;;;1.73;0.47;;;18.00;66.40;;;;;;5003521;28;47040;-72
2023/01/03 10:35:51;;;;;;;1.30;0.60;;;18.00;66.30;;;;;;4999828;28;45458;-72
2023/01/03 10:38:19;;;;;;;1.02;0.60;;;17.90;66.40;;;;;;5003593;28;45285;-73
2023/01/03 10:40:50;;;;;;;1.83;0.68;;;17.90;66.50;;;;;;5002811;28;45303;-72
2023/01/03 10:43:19;;;;;;;1.60;0.60;;;17.90;66.60;;;;;;5002642;28;47903;-72
2023/01/03 10:45:51;;;;;;;1.40;0.57;;;17.90;66.80;;;;;;5003542;28;45307;-72
2023/01/03 10:48:18;;;;;;;0.68;0.50;;;17.80;66.80;;;;;;5012130;28;45309;-72
2023/01/03 10:50:45;;;;;;;2.58;0.70;;;17.80;67.00;;;;;;5023543;28;45259;-71
2023/01/03 10:53:15;;;;;;;0.82;0.57;;;17.80;67.10;;;;;;5023576;28;45590;-72
2023/01/03 10:55:48;;;;;;;2.28;0.50;;;17.80;67.10;;;;;;5023600;28;45398;-72
2023/01/03 10:58:21;;;;;;;1.73;0.77;;;17.80;67.10;;;;;;5023176;28;45344;-72
2023/01/03 11:00:48;;;;;;;1.23;0.60;;;17.80;67.10;;;;;;5021377;28;45340;-72
2023/01/03 11:03:17;;;;;;;1.50;0.63;;;17.80;67.10;;;;;;5022227;28;47526;-72
2023/01/03 11:05:46;;;;;;;1.63;0.60;;;17.90;67.30;;;;;;5022384;28;45435;-73
2023/01/03 11:08:19;;;;;;;1.08;0.60;;;17.90;67.30;;;;;;5022543;28;45365;-72
2023/01/03 11:10:53;;;;;;;1.40;0.60;;;17.90;67.20;;;;;;5023503;28;45294;-72
2023/01/03 11:13:33;;;;;;;1.05;0.50;;;17.90;67.20;;;;;;5023479;28;47954;-72
2023/01/03 11:16:01;;;;;;;0.50;0.40;;;17.90;67.60;;;;;;5021313;28;45417;-72
2023/01/03 11:18:30;;;;;;;1.10;0.55;;;17.90;67.30;;;;;;5022761;28;45516;-72
2023/01/03 11:21:06;;;;;;;1.98;0.45;;;17.90;67.20;;;;;;5021869;28;45484;-72
2023/01/03 11:23:49;;;;;;;1.98;0.60;;;17.80;67.00;;;;;;5021209;28;47533;-72
2023/01/03 11:26:28;;;;;;;0.47;0.30;;;17.90;67.20;;;;;;5022112;28;46392;-72
2023/01/03 11:29:17;;;;;;;0.70;0.45;;;17.90;67.10;;;;;;5022598;28;45273;-73
2023/01/03 11:31:52;;;;;;;2.28;0.40;;;17.90;66.80;;;;;;5022284;28;45385;-72
2023/01/03 11:34:38;;;;;;;2.35;0.70;;;17.90;66.60;;;;;;5022162;28;45414;-73
2023/01/03 11:37:12;;;;;;;1.20;0.40;;;18.00;66.80;;;;;;5021729;28;45282;-73
2023/01/03 11:39:54;;;;;;;0.93;0.40;;;18.00;66.60;;;;;;5021787;28;45391;-73
2023/01/03 11:42:36;;;;;;;1.27;0.40;;;18.00;66.60;;;;;;5021298;28;45381;-72
2023/01/03 11:45:30;;;;;;;1.02;0.63;;;18.00;66.80;;;;;;5024613;28;46553;-72
2023/01/03 11:48:11;;;;;;;1.00;0.50;;;18.00;67.10;;;;;;5025688;28;45415;-72
2023/01/03 11:50:48;;;;;;;1.08;0.55;;;18.00;67.10;;;;;;5025323;28;45286;-72
2023/01/03 11:53:28;;;;;;;2.05;0.50;;;18.00;67.30;;;;;;5025998;28;45403;-72
2023/01/03 11:56:14;;;;;;;0.50;0.38;;;18.00;67.30;;;;;;5024568;28;47550;-72
2023/01/03 11:59:03;;;;;;;1.45;0.40;;;18.10;67.40;;;;;;5025642;28;46192;-73
2023/01/03 12:01:56;;;;;;;2.38;1.02;;;18.10;67.50;;;;;;5018254;28;45362;-72
2023/01/03 12:04:30;;;;;;;3.97;0.95;;;18.20;70.80;;;;;;4977992;28;45479;-72
2023/01/03 12:07:11;;;;;;;2.08;0.63;;;18.20;69.10;;;;;;5015653;28;45323;-73
2023/01/03 12:09:43;;;;;;;1.55;0.68;;;18.20;68.90;;;;;;5018167;28;45522;-72
2023/01/03 12:12:42;;;;;;;1.00;0.50;;;18.20;69.10;;;;;;5022962;28;45421;-72
2023/01/03 12:15:18;;;;;;;1.70;0.50;;;18.10;69.30;;;;;;5021410;28;45483;-72
2023/01/03 12:17:49;;;;;;;1.27;0.40;;;18.10;69.10;;;;;;5022710;28;46969;-73
2023/01/03 12:20:22;;;;;;;4.63;0.80;;;18.10;69.20;;;;;;5022520;28;45437;-73
2023/01/03 12:22:54;;;;;;;1.25;0.55;;;18.10;69.10;;;;;;5019140;28;45756;-73
2023/01/03 12:25:26;;;;;;;2.38;0.70;;;18.10;69.40;;;;;;5022182;28;45639;-72
2023/01/03 12:27:58;;;;;;;2.13;0.70;;;18.10;69.30;;;;;;5024518;28;47827;-72
2023/01/03 12:30:36;;;;;;;1.05;0.50;;;18.10;69.60;;;;;;5022279;28;45398;-73
2023/01/03 12:33:13;;;;;;;2.08;0.60;;;18.00;69.60;;;;;;5019740;28;45614;-72
2023/01/03 12:35:46;;;;;;;1.65;0.60;;;18.00;69.60;;;;;;5025045;28;45431;-74
2023/01/03 12:38:13;;;;;;;1.45;0.40;;;18.00;69.60;;;;;;5023746;28;45470;-73
2023/01/03 12:40:46;;;;;;;1.10;0.70;;;18.10;69.20;;;;;;5021803;28;45434;-73
2023/01/03 12:43:20;;;;;;;0.50;0.30;;;18.10;69.00;;;;;;5020039;28;45364;-72
2023/01/03 12:45:53;;;;;;;1.75;0.40;;;18.10;69.40;;;;;;5023549;28;45413;-73
2023/01/03 12:48:53;;;;;;;1.15;0.50;;;18.10;69.70;;;;;;5022452;28;47022;-73
2023/01/03 12:51:24;;;;;;;0.60;0.40;;;18.10;69.80;;;;;;5019825;28;45397;-73
2023/01/03 12:54:02;;;;;;;1.70;0.70;;;18.10;70.30;;;;;;5015054;28;45571;-72
2023/01/03 12:56:53;;;;;;;0.77;0.50;;;18.10;71.00;;;;;;5021799;28;45413;-72
2023/01/03 12:59:43;;;;;;;1.52;0.50;;;18.10;70.90;;;;;;5021147;28;45457;-73
2023/01/03 13:02:22;;;;;;;0.93;0.40;;;18.20;71.30;;;;;;5020626;28;45711;-74
2023/01/03 13:04:53;;;;;;;1.17;0.50;;;18.10;70.90;;;;;;5022516;28;45356;-73
2023/01/03 13:07:24;;;;;;;1.92;0.60;;;18.30;70.70;;;;;;5022935;28;45287;-72
2023/01/03 13:09:55;;;;;;;0.85;0.30;;;18.20;69.70;;;;;;5021020;28;46554;-72
2023/01/03 13:12:26;;;;;;;0.60;0.30;;;18.30;69.30;;;;;;5022109;28;45659;-72
2023/01/03 13:14:55;;;;;;;1.48;0.38;;;18.30;68.90;;;;;;5022823;28;45376;-73
2023/01/03 13:17:25;;;;;;;2.53;0.60;;;18.30;68.50;;;;;;5023889;28;45532;-72
2023/01/03 13:19:55;;;;;;;2.08;0.63;;;18.30;68.40;;;;;;5019079;28;46410;-73
2023/01/03 13:22:34;;;;;;;0.65;0.35;;;18.30;68.30;;;;;;5023101;28;45796;-73
2023/01/03 13:25:32;;;;;;;1.17;0.38;;;18.30;68.70;;;;;;5023129;28;45487;-73
2023/01/03 13:28:00;;;;;;;3.45;0.40;;;18.40;68.80;;;;;;5022158;28;45448;-72
2023/01/03 13:30:29;;;;;;;1.65;0.60;;;18.40;69.10;;;;;;5031609;28;47502;-73
2023/01/03 13:33:16;;;;;;;2.63;0.52;;;18.40;69.10;;;;;;5043573;28;46098;-73
2023/01/03 13:35:58;;;;;;;0.68;0.40;;;18.40;69.40;;;;;;5028432;28;45420;-73
2023/01/03 13:38:28;;;;;;;1.75;0.40;;;18.30;69.20;;;;;;5023770;28;45424;-73
2023/01/03 13:40:59;;;;;;;0.77;0.35;;;18.30;69.10;;;;;;5030288;28;45441;-73
2023/01/03 13:43:37;;;;;;;2.40;0.43;;;18.40;69.10;;;;;;5025007;28;45578;-73
2023/01/03 13:46:19;;;;;;;1.40;0.55;;;18.40;69.30;;;;;;5022166;28;45450;-70
2023/01/03 13:48:56;;;;;;;8.57;1.30;;;18.40;71.60;;;;;;5020397;28;45436;-72
2023/01/03 13:51:35;;;;;;;4.05;0.75;;;18.50;71.50;;;;;;5021487;28;46391;-71
2023/01/03 13:54:06;;;;;;;4.07;0.95;;;18.60;69.60;;;;;;5022266;28;45579;-72
2023/01/03 13:56:57;;;;;;;5.85;1.17;;;18.50;69.10;;;;;;5022702;28;45438;-72
2023/01/03 13:59:31;;;;;;;2.42;0.52;;;18.50;68.80;;;;;;5021749;28;45299;-71
2023/01/03 14:02:16;;;;;;;1.35;0.50;;;18.50;69.00;;;;;;5022773;28;46252;-72
2023/01/03 14:05:22;;;;;;;1.60;0.60;;;18.50;69.20;;;;;;5021615;28;45509;-72
2023/01/03 14:08:01;;;;;;;1.98;0.55;;;18.50;69.00;;;;;;5002914;28;45311;-71
2023/01/03 14:10:43;;;;;;;1.63;0.47;;;18.50;69.10;;;;;;5005403;28;45450;-72